sensor_id;sensor_type;location;lat;lon;timestamp;P1;durP1;ratioP1;P2;durP2;ratioP2
44137;SDS011;29800;55.942;37.314;2023-04-30T00:00:22;25.30;;;14.68;;
44137;SDS011;29800;55.942;37.314;2023-04-30T00:02:49;28.67;;;14.23;;
44137;SDS011;29800;55.942;37.314;2023-04-30T00:05:15;30.17;;;13.93;;
44137;SDS011;29800;55.942;37.314;2023-04-30T00:07:41;28.00;;;12.77;;
44137;SDS011;29800;55.942;37.314;2023-04-30T00:10:08;25.27;;;11.85;;
44137;SDS011;29800;55.942;37.314;2023-04-30T00:12:36;26.80;;;11.18;;
44137;SDS011;29800;55.942;37.314;2023-04-30T00:15:03;23.50;;;11.80;;
44137;SDS011;29800;55.942;37.314;2023-04-30T00:17:32;22.08;;;11.80;;
44137;SDS011;29800;55.942;37.314;2023-04-30T00:19:59;26.60;;;11.70;;
44137;SDS011;29800;55.942;37.314;2023-04-30T00:22:26;23.00;;;11.02;;
44137;SDS011;29800;55.942;37.314;2023-04-30T00:24:53;23.73;;;10.75;;
44137;SDS011;29800;55.942;37.314;2023-04-30T00:27:19;22.00;;;10.93;;
44137;SDS011;29800;55.942;37.314;2023-04-30T00:29:47;19.23;;;11.05;;
44137;SDS011;29800;55.942;37.314;2023-04-30T00:32:13;23.40;;;11.45;;
44137;SDS011;29800;55.942;37.314;2023-04-30T00:34:40;24.40;;;11.52;;
44137;SDS011;29800;55.942;37.314;2023-04-30T00:37:07;21.52;;;11.52;;
44137;SDS011;29800;55.942;37.314;2023-04-30T00:39:33;22.10;;;11.45;;
44137;SDS011;29800;55.942;37.314;2023-04-30T00:42:00;26.17;;;12.82;;
44137;SDS011;29800;55.942;37.314;2023-04-30T00:44:27;21.10;;;11.02;;
44137;SDS011;29800;55.942;37.314;2023-04-30T00:46:54;22.98;;;11.73;;
44137;SDS011;29800;55.942;37.314;2023-04-30T00:49:20;26.23;;;10.98;;
44137;SDS011;29800;55.942;37.314;2023-04-30T00:51:47;20.67;;;10.85;;
44137;SDS011;29800;55.942;37.314;2023-04-30T00:54:14;26.50;;;11.93;;
44137;SDS011;29800;55.942;37.314;2023-04-30T00:56:41;21.50;;;10.20;;
44137;SDS011;29800;55.942;37.314;2023-04-30T00:59:07;21.70;;;10.45;;
44137;SDS011;29800;55.942;37.314;2023-04-30T01:01:35;20.23;;;10.60;;
44137;SDS011;29800;55.942;37.314;2023-04-30T01:04:03;19.80;;;10.57;;
44137;SDS011;29800;55.942;37.314;2023-04-30T01:06:30;20.10;;;10.75;;
44137;SDS011;29800;55.942;37.314;2023-04-30T01:08:57;26.60;;;10.88;;
44137;SDS011;29800;55.942;37.314;2023-04-30T01:11:27;21.67;;;10.80;;
44137;SDS011;29800;55.942;37.314;2023-04-30T01:17:04;25.58;;;11.75;;
44137;SDS011;29800;55.942;37.314;2023-04-30T01:19:41;26.10;;;10.85;;
44137;SDS011;29800;55.942;37.314;2023-04-30T01:30:34;24.70;;;11.90;;
44137;SDS011;29800;55.942;37.314;2023-04-30T01:33:08;27.38;;;11.85;;
44137;SDS011;29800;55.942;37.314;2023-04-30T01:38:35;25.83;;;12.18;;
44137;SDS011;29800;55.942;37.314;2023-04-30T01:52:17;27.25;;;12.02;;
44137;SDS011;29800;55.942;37.314;2023-04-30T01:55:02;24.50;;;11.25;;
44137;SDS011;29800;55.942;37.314;2023-04-30T01:57:36;18.63;;;10.85;;
44137;SDS011;29800;55.942;37.314;2023-04-30T02:00:06;29.00;;;10.98;;
44137;SDS011;29800;55.942;37.314;2023-04-30T02:02:39;19.30;;;11.38;;
44137;SDS011;29800;55.942;37.314;2023-04-30T02:05:06;23.27;;;10.80;;
44137;SDS011;29800;55.942;37.314;2023-04-30T02:07:38;19.15;;;10.35;;
44137;SDS011;29800;55.942;37.314;2023-04-30T02:10:07;23.30;;;11.57;;
44137;SDS011;29800;55.942;37.314;2023-04-30T02:12:34;25.73;;;11.23;;
44137;SDS011;29800;55.942;37.314;2023-04-30T02:15:01;23.52;;;11.32;;
44137;SDS011;29800;55.942;37.314;2023-04-30T02:17:29;23.80;;;11.07;;
44137;SDS011;29800;55.942;37.314;2023-04-30T02:19:57;24.33;;;11.07;;
44137;SDS011;29800;55.942;37.314;2023-04-30T02:22:24;26.17;;;11.73;;
44137;SDS011;29800;55.942;37.314;2023-04-30T02:24:51;18.90;;;11.18;;
44137;SDS011;29800;55.942;37.314;2023-04-30T02:27:22;23.48;;;11.10;;
44137;SDS011;29800;55.942;37.314;2023-04-30T02:29:50;22.13;;;10.63;;
44137;SDS011;29800;55.942;37.314;2023-04-30T02:32:18;21.23;;;10.07;;
44137;SDS011;29800;55.942;37.314;2023-04-30T02:34:44;23.20;;;9.40;;
44137;SDS011;29800;55.942;37.314;2023-04-30T02:37:11;22.45;;;10.18;;
44137;SDS011;29800;55.942;37.314;2023-04-30T02:39:37;19.30;;;9.60;;
44137;SDS011;29800;55.942;37.314;2023-04-30T02:42:04;18.52;;;9.60;;
44137;SDS011;29800;55.942;37.314;2023-04-30T02:44:31;20.85;;;8.98;;
44137;SDS011;29800;55.942;37.314;2023-04-30T02:46:58;19.60;;;8.82;;
44137;SDS011;29800;55.942;37.314;2023-04-30T02:49:25;17.33;;;9.07;;
44137;SDS011;29800;55.942;37.314;2023-04-30T02:51:52;22.40;;;9.70;;
44137;SDS011;29800;55.942;37.314;2023-04-30T02:54:19;30.60;;;10.00;;
44137;SDS011;29800;55.942;37.314;2023-04-30T02:56:45;21.55;;;10.40;;
44137;SDS011;29800;55.942;37.314;2023-04-30T02:59:12;21.40;;;9.98;;
44137;SDS011;29800;55.942;37.314;2023-04-30T03:01:39;19.30;;;10.55;;
44137;SDS011;29800;55.942;37.314;2023-04-30T03:04:05;23.48;;;10.40;;
44137;SDS011;29800;55.942;37.314;2023-04-30T03:06:32;22.65;;;10.73;;
44137;SDS011;29800;55.942;37.314;2023-04-30T03:08:59;20.58;;;10.60;;
44137;SDS011;29800;55.942;37.314;2023-04-30T03:11:26;20.63;;;11.10;;
44137;SDS011;29800;55.942;37.314;2023-04-30T03:13:52;17.55;;;10.35;;
44137;SDS011;29800;55.942;37.314;2023-04-30T03:16:19;24.58;;;10.65;;
44137;SDS011;29800;55.942;37.314;2023-04-30T03:18:47;22.58;;;10.43;;
44137;SDS011;29800;55.942;37.314;2023-04-30T03:21:14;26.02;;;10.75;;
44137;SDS011;29800;55.942;37.314;2023-04-30T03:23:43;20.70;;;10.38;;
44137;SDS011;29800;55.942;37.314;2023-04-30T03:26:11;21.25;;;10.68;;
44137;SDS011;29800;55.942;37.314;2023-04-30T03:28:40;20.10;;;10.20;;
44137;SDS011;29800;55.942;37.314;2023-04-30T03:31:06;22.42;;;10.23;;
44137;SDS011;29800;55.942;37.314;2023-04-30T03:33:33;20.63;;;10.00;;
44137;SDS011;29800;55.942;37.314;2023-04-30T03:35:59;21.17;;;9.70;;
44137;SDS011;29800;55.942;37.314;2023-04-30T03:38:26;21.05;;;10.57;;
44137;SDS011;29800;55.942;37.314;2023-04-30T03:40:52;23.58;;;9.55;;
44137;SDS011;29800;55.942;37.314;2023-04-30T03:43:19;23.05;;;10.60;;
44137;SDS011;29800;55.942;37.314;2023-04-30T03:45:46;19.55;;;10.70;;
44137;SDS011;29800;55.942;37.314;2023-04-30T03:48:13;19.58;;;10.38;;
44137;SDS011;29800;55.942;37.314;2023-04-30T03:50:39;22.98;;;10.82;;
44137;SDS011;29800;55.942;37.314;2023-04-30T03:53:06;23.10;;;10.70;;
44137;SDS011;29800;55.942;37.314;2023-04-30T03:55:33;24.52;;;10.77;;
44137;SDS011;29800;55.942;37.314;2023-04-30T03:58:00;21.75;;;11.55;;
44137;SDS011;29800;55.942;37.314;2023-04-30T04:00:27;23.92;;;11.07;;
44137;SDS011;29800;55.942;37.314;2023-04-30T04:02:53;25.88;;;11.73;;
44137;SDS011;29800;55.942;37.314;2023-04-30T04:05:22;21.48;;;10.85;;
44137;SDS011;29800;55.942;37.314;2023-04-30T04:07:48;20.65;;;10.90;;
44137;SDS011;29800;55.942;37.314;2023-04-30T04:10:15;21.38;;;11.18;;
44137;SDS011;29800;55.942;37.314;2023-04-30T04:12:42;18.13;;;10.98;;
44137;SDS011;29800;55.942;37.314;2023-04-30T04:15:08;19.90;;;11.38;;
44137;SDS011;29800;55.942;37.314;2023-04-30T04:17:36;22.80;;;11.75;;
44137;SDS011;29800;55.942;37.314;2023-04-30T04:20:02;25.02;;;11.65;;
44137;SDS011;29800;55.942;37.314;2023-04-30T04:22:32;20.08;;;11.48;;
44137;SDS011;29800;55.942;37.314;2023-04-30T04:24:59;20.65;;;11.18;;
44137;SDS011;29800;55.942;37.314;2023-04-30T04:27:27;22.13;;;11.90;;
44137;SDS011;29800;55.942;37.314;2023-04-30T04:29:53;22.27;;;11.52;;
44137;SDS011;29800;55.942;37.314;2023-04-30T04:32:20;24.75;;;12.05;;
44137;SDS011;29800;55.942;37.314;2023-04-30T04:34:47;30.40;;;12.10;;
44137;SDS011;29800;55.942;37.314;2023-04-30T04:37:14;19.10;;;11.50;;
44137;SDS011;29800;55.942;37.314;2023-04-30T04:39:42;18.58;;;11.35;;
44137;SDS011;29800;55.942;37.314;2023-04-30T04:42:09;27.95;;;11.65;;
44137;SDS011;29800;55.942;37.314;2023-04-30T04:44:36;22.55;;;12.13;;
44137;SDS011;29800;55.942;37.314;2023-04-30T04:47:03;24.05;;;12.43;;
44137;SDS011;29800;55.942;37.314;2023-04-30T04:49:31;21.95;;;12.07;;
44137;SDS011;29800;55.942;37.314;2023-04-30T04:51:57;20.23;;;11.45;;
44137;SDS011;29800;55.942;37.314;2023-04-30T04:54:24;21.15;;;11.27;;
44137;SDS011;29800;55.942;37.314;2023-04-30T04:56:51;21.85;;;11.27;;
44137;SDS011;29800;55.942;37.314;2023-04-30T04:59:18;18.95;;;10.45;;
44137;SDS011;29800;55.942;37.314;2023-04-30T05:01:45;23.33;;;11.02;;
44137;SDS011;29800;55.942;37.314;2023-04-30T05:04:12;19.20;;;10.18;;
44137;SDS011;29800;55.942;37.314;2023-04-30T05:06:38;14.85;;;8.30;;
44137;SDS011;29800;55.942;37.314;2023-04-30T05:09:06;19.08;;;8.93;;
44137;SDS011;29800;55.942;37.314;2023-04-30T05:11:35;13.55;;;8.50;;
44137;SDS011;29800;55.942;37.314;2023-04-30T05:14:01;16.92;;;8.85;;
44137;SDS011;29800;55.942;37.314;2023-04-30T05:16:28;19.45;;;9.55;;
44137;SDS011;29800;55.942;37.314;2023-04-30T05:18:54;18.20;;;8.75;;
44137;SDS011;29800;55.942;37.314;2023-04-30T05:21:21;13.10;;;8.25;;
44137;SDS011;29800;55.942;37.314;2023-04-30T05:23:47;14.95;;;8.55;;
44137;SDS011;29800;55.942;37.314;2023-04-30T05:26:14;14.88;;;8.57;;
44137;SDS011;29800;55.942;37.314;2023-04-30T05:28:41;13.27;;;6.60;;
44137;SDS011;29800;55.942;37.314;2023-04-30T05:31:08;14.32;;;7.43;;
44137;SDS011;29800;55.942;37.314;2023-04-30T05:33:34;13.45;;;6.80;;
44137;SDS011;29800;55.942;37.314;2023-04-30T05:36:02;13.18;;;7.25;;
44137;SDS011;29800;55.942;37.314;2023-04-30T05:38:28;14.27;;;7.15;;
44137;SDS011;29800;55.942;37.314;2023-04-30T05:40:54;15.52;;;6.63;;
44137;SDS011;29800;55.942;37.314;2023-04-30T05:43:21;13.60;;;6.55;;
44137;SDS011;29800;55.942;37.314;2023-04-30T05:45:47;15.70;;;7.53;;
44137;SDS011;29800;55.942;37.314;2023-04-30T05:48:14;15.27;;;6.55;;
44137;SDS011;29800;55.942;37.314;2023-04-30T05:50:40;10.75;;;5.70;;
44137;SDS011;29800;55.942;37.314;2023-04-30T05:53:07;8.57;;;5.63;;
44137;SDS011;29800;55.942;37.314;2023-04-30T05:55:33;10.73;;;6.13;;
44137;SDS011;29800;55.942;37.314;2023-04-30T05:58:00;11.40;;;5.10;;
44137;SDS011;29800;55.942;37.314;2023-04-30T06:00:26;9.38;;;5.80;;
44137;SDS011;29800;55.942;37.314;2023-04-30T06:02:53;7.72;;;4.70;;
44137;SDS011;29800;55.942;37.314;2023-04-30T06:05:19;8.75;;;4.90;;
44137;SDS011;29800;55.942;37.314;2023-04-30T06:07:46;7.88;;;4.65;;
44137;SDS011;29800;55.942;37.314;2023-04-30T06:10:12;10.48;;;4.75;;
44137;SDS011;29800;55.942;37.314;2023-04-30T06:12:39;6.22;;;3.58;;
44137;SDS011;29800;55.942;37.314;2023-04-30T06:15:05;7.63;;;3.60;;
44137;SDS011;29800;55.942;37.314;2023-04-30T06:17:32;6.28;;;3.72;;
44137;SDS011;29800;55.942;37.314;2023-04-30T06:19:58;8.77;;;4.50;;
44137;SDS011;29800;55.942;37.314;2023-04-30T06:22:32;7.03;;;4.20;;
44137;SDS011;29800;55.942;37.314;2023-04-30T06:24:59;8.48;;;4.68;;
44137;SDS011;29800;55.942;37.314;2023-04-30T06:27:25;9.00;;;4.82;;
44137;SDS011;29800;55.942;37.314;2023-04-30T06:29:57;6.97;;;4.18;;
44137;SDS011;29800;55.942;37.314;2023-04-30T06:32:25;8.38;;;4.40;;
44137;SDS011;29800;55.942;37.314;2023-04-30T06:34:52;8.38;;;4.90;;
44137;SDS011;29800;55.942;37.314;2023-04-30T06:37:18;10.13;;;4.65;;
44137;SDS011;29800;55.942;37.314;2023-04-30T06:39:45;7.68;;;4.55;;
44137;SDS011;29800;55.942;37.314;2023-04-30T06:42:11;7.75;;;4.40;;
44137;SDS011;29800;55.942;37.314;2023-04-30T06:44:37;8.70;;;4.20;;
44137;SDS011;29800;55.942;37.314;2023-04-30T06:47:04;7.00;;;4.30;;
44137;SDS011;29800;55.942;37.314;2023-04-30T06:49:33;4.93;;;3.45;;
44137;SDS011;29800;55.942;37.314;2023-04-30T06:52:00;7.10;;;3.90;;
44137;SDS011;29800;55.942;37.314;2023-04-30T06:54:27;5.70;;;3.22;;
44137;SDS011;29800;55.942;37.314;2023-04-30T06:56:54;5.60;;;3.63;;
44137;SDS011;29800;55.942;37.314;2023-04-30T06:59:20;7.90;;;3.10;;
44137;SDS011;29800;55.942;37.314;2023-04-30T07:01:46;8.38;;;3.40;;
44137;SDS011;29800;55.942;37.314;2023-04-30T07:04:13;4.47;;;3.10;;
44137;SDS011;29800;55.942;37.314;2023-04-30T07:06:39;6.10;;;3.10;;
44137;SDS011;29800;55.942;37.314;2023-04-30T07:09:06;8.75;;;3.58;;
44137;SDS011;29800;55.942;37.314;2023-04-30T07:11:32;5.80;;;3.30;;
44137;SDS011;29800;55.942;37.314;2023-04-30T07:13:59;4.63;;;3.00;;
44137;SDS011;29800;55.942;37.314;2023-04-30T07:16:25;5.03;;;2.80;;
44137;SDS011;29800;55.942;37.314;2023-04-30T07:18:52;6.30;;;3.40;;
44137;SDS011;29800;55.942;37.314;2023-04-30T07:21:19;6.05;;;3.53;;
44137;SDS011;29800;55.942;37.314;2023-04-30T07:23:46;5.30;;;3.05;;
44137;SDS011;29800;55.942;37.314;2023-04-30T07:26:13;10.20;;;3.42;;
44137;SDS011;29800;55.942;37.314;2023-04-30T07:28:40;6.85;;;3.47;;
44137;SDS011;29800;55.942;37.314;2023-04-30T07:50:13;5.45;;;2.70;;
44137;SDS011;29800;55.942;37.314;2023-04-30T07:52:40;5.85;;;2.58;;
44137;SDS011;29800;55.942;37.314;2023-04-30T07:55:07;4.82;;;2.25;;
44137;SDS011;29800;55.942;37.314;2023-04-30T07:57:34;7.47;;;2.83;;
44137;SDS011;29800;55.942;37.314;2023-04-30T08:00:00;8.32;;;2.70;;
44137;SDS011;29800;55.942;37.314;2023-04-30T08:02:29;4.13;;;2.10;;
44137;SDS011;29800;55.942;37.314;2023-04-30T08:04:56;3.75;;;2.13;;
44137;SDS011;29800;55.942;37.314;2023-04-30T08:07:22;5.13;;;2.28;;
44137;SDS011;29800;55.942;37.314;2023-04-30T08:09:49;5.07;;;1.90;;
44137;SDS011;29800;55.942;37.314;2023-04-30T08:12:16;6.78;;;2.45;;
44137;SDS011;29800;55.942;37.314;2023-04-30T08:14:43;6.07;;;2.35;;
44137;SDS011;29800;55.942;37.314;2023-04-30T08:17:09;3.50;;;1.98;;
44137;SDS011;29800;55.942;37.314;2023-04-30T08:19:36;6.78;;;2.90;;
44137;SDS011;29800;55.942;37.314;2023-04-30T08:22:02;7.20;;;2.55;;
44137;SDS011;29800;55.942;37.314;2023-04-30T08:24:29;7.72;;;2.60;;
44137;SDS011;29800;55.942;37.314;2023-04-30T08:26:55;3.47;;;1.95;;
44137;SDS011;29800;55.942;37.314;2023-04-30T08:29:21;3.28;;;1.90;;
44137;SDS011;29800;55.942;37.314;2023-04-30T08:31:48;3.38;;;1.70;;
44137;SDS011;29800;55.942;37.314;2023-04-30T08:34:14;5.15;;;2.58;;
44137;SDS011;29800;55.942;37.314;2023-04-30T08:36:40;3.60;;;2.08;;
44137;SDS011;29800;55.942;37.314;2023-04-30T08:39:06;5.20;;;2.20;;
44137;SDS011;29800;55.942;37.314;2023-04-30T08:41:33;6.38;;;1.95;;
44137;SDS011;29800;55.942;37.314;2023-04-30T08:44:01;5.03;;;1.98;;
44137;SDS011;29800;55.942;37.314;2023-04-30T08:46:30;4.72;;;1.98;;
44137;SDS011;29800;55.942;37.314;2023-04-30T08:48:58;3.97;;;1.85;;
44137;SDS011;29800;55.942;37.314;2023-04-30T08:51:25;2.90;;;1.50;;
44137;SDS011;29800;55.942;37.314;2023-04-30T08:53:53;6.13;;;1.83;;
44137;SDS011;29800;55.942;37.314;2023-04-30T08:56:20;3.95;;;1.60;;
44137;SDS011;29800;55.942;37.314;2023-04-30T08:58:46;4.32;;;2.00;;
44137;SDS011;29800;55.942;37.314;2023-04-30T09:01:13;2.80;;;1.40;;
44137;SDS011;29800;55.942;37.314;2023-04-30T09:03:40;3.13;;;1.88;;
44137;SDS011;29800;55.942;37.314;2023-04-30T09:06:06;4.05;;;1.45;;
44137;SDS011;29800;55.942;37.314;2023-04-30T09:11:34;3.42;;;1.70;;
44137;SDS011;29800;55.942;37.314;2023-04-30T09:14:00;3.00;;;1.52;;
44137;SDS011;29800;55.942;37.314;2023-04-30T09:16:28;5.05;;;1.50;;
44137;SDS011;29800;55.942;37.314;2023-04-30T09:19:09;5.38;;;1.60;;
44137;SDS011;29800;55.942;37.314;2023-04-30T09:21:47;4.10;;;1.40;;
44137;SDS011;29800;55.942;37.314;2023-04-30T09:24:13;5.13;;;1.60;;
44137;SDS011;29800;55.942;37.314;2023-04-30T09:26:40;2.97;;;1.55;;
44137;SDS011;29800;55.942;37.314;2023-04-30T09:29:07;3.35;;;1.48;;
44137;SDS011;29800;55.942;37.314;2023-04-30T09:31:38;4.15;;;1.50;;
44137;SDS011;29800;55.942;37.314;2023-04-30T09:34:12;3.55;;;1.60;;
44137;SDS011;29800;55.942;37.314;2023-04-30T09:36:52;3.25;;;1.50;;
44137;SDS011;29800;55.942;37.314;2023-04-30T09:39:19;2.70;;;1.45;;
44137;SDS011;29800;55.942;37.314;2023-04-30T09:41:46;3.20;;;1.58;;
44137;SDS011;29800;55.942;37.314;2023-04-30T09:44:31;4.03;;;1.52;;
44137;SDS011;29800;55.942;37.314;2023-04-30T09:47:01;5.60;;;1.77;;
44137;SDS011;29800;55.942;37.314;2023-04-30T09:49:28;3.63;;;1.85;;
44137;SDS011;29800;55.942;37.314;2023-04-30T09:51:58;4.20;;;1.88;;
44137;SDS011;29800;55.942;37.314;2023-04-30T09:54:29;4.15;;;1.90;;
44137;SDS011;29800;55.942;37.314;2023-04-30T09:56:57;5.15;;;1.48;;
44137;SDS011;29800;55.942;37.314;2023-04-30T09:59:29;4.50;;;1.60;;
44137;SDS011;29800;55.942;37.314;2023-04-30T10:02:00;2.95;;;1.73;;
44137;SDS011;29800;55.942;37.314;2023-04-30T10:04:37;2.72;;;1.38;;
44137;SDS011;29800;55.942;37.314;2023-04-30T10:07:14;2.40;;;1.30;;
44137;SDS011;29800;55.942;37.314;2023-04-30T10:10:02;4.10;;;1.60;;
44137;SDS011;29800;55.942;37.314;2023-04-30T10:12:42;2.22;;;1.33;;
44137;SDS011;29800;55.942;37.314;2023-04-30T10:15:22;3.72;;;1.45;;
44137;SDS011;29800;55.942;37.314;2023-04-30T10:17:53;3.30;;;1.80;;
44137;SDS011;29800;55.942;37.314;2023-04-30T10:20:25;4.35;;;2.25;;
44137;SDS011;29800;55.942;37.314;2023-04-30T10:22:52;3.28;;;1.58;;
44137;SDS011;29800;55.942;37.314;2023-04-30T10:25:19;4.75;;;2.30;;
44137;SDS011;29800;55.942;37.314;2023-04-30T10:27:47;3.45;;;1.80;;
44137;SDS011;29800;55.942;37.314;2023-04-30T10:30:14;2.47;;;1.17;;
44137;SDS011;29800;55.942;37.314;2023-04-30T10:32:43;4.82;;;1.40;;
44137;SDS011;29800;55.942;37.314;2023-04-30T10:35:27;2.67;;;1.30;;
44137;SDS011;29800;55.942;37.314;2023-04-30T10:38:12;3.05;;;1.40;;
44137;SDS011;29800;55.942;37.314;2023-04-30T10:40:48;4.10;;;1.50;;
44137;SDS011;29800;55.942;37.314;2023-04-30T10:43:16;4.07;;;1.85;;
44137;SDS011;29800;55.942;37.314;2023-04-30T10:45:44;6.53;;;3.45;;
44137;SDS011;29800;55.942;37.314;2023-04-30T10:48:10;2.92;;;1.90;;
44137;SDS011;29800;55.942;37.314;2023-04-30T10:50:41;3.95;;;1.92;;
44137;SDS011;29800;55.942;37.314;2023-04-30T10:53:13;5.47;;;2.00;;
44137;SDS011;29800;55.942;37.314;2023-04-30T10:55:47;7.13;;;2.10;;
44137;SDS011;29800;55.942;37.314;2023-04-30T10:58:30;3.85;;;1.30;;
44137;SDS011;29800;55.942;37.314;2023-04-30T11:03:37;3.55;;;1.63;;
44137;SDS011;29800;55.942;37.314;2023-04-30T11:06:09;3.05;;;1.80;;
44137;SDS011;29800;55.942;37.314;2023-04-30T11:08:43;6.07;;;2.10;;
44137;SDS011;29800;55.942;37.314;2023-04-30T11:11:11;6.30;;;2.97;;
44137;SDS011;29800;55.942;37.314;2023-04-30T11:13:46;3.28;;;1.50;;
44137;SDS011;29800;55.942;37.314;2023-04-30T11:16:17;4.20;;;1.30;;
44137;SDS011;29800;55.942;37.314;2023-04-30T11:18:45;2.92;;;1.45;;
44137;SDS011;29800;55.942;37.314;2023-04-30T11:21:12;2.78;;;1.55;;
44137;SDS011;29800;55.942;37.314;2023-04-30T11:23:42;3.53;;;1.90;;
44137;SDS011;29800;55.942;37.314;2023-04-30T11:26:09;2.85;;;1.13;;
44137;SDS011;29800;55.942;37.314;2023-04-30T11:28:36;2.22;;;1.10;;
44137;SDS011;29800;55.942;37.314;2023-04-30T11:31:03;2.78;;;1.30;;
44137;SDS011;29800;55.942;37.314;2023-04-30T11:33:30;3.13;;;1.60;;
44137;SDS011;29800;55.942;37.314;2023-04-30T11:35:59;3.38;;;1.13;;
44137;SDS011;29800;55.942;37.314;2023-04-30T11:38:26;4.63;;;1.90;;
44137;SDS011;29800;55.942;37.314;2023-04-30T11:41:00;5.05;;;1.80;;
44137;SDS011;29800;55.942;37.314;2023-04-30T11:43:28;3.63;;;1.25;;
44137;SDS011;29800;55.942;37.314;2023-04-30T11:46:03;5.15;;;2.53;;
44137;SDS011;29800;55.942;37.314;2023-04-30T11:48:33;3.63;;;1.50;;
44137;SDS011;29800;55.942;37.314;2023-04-30T11:51:02;4.45;;;1.55;;
44137;SDS011;29800;55.942;37.314;2023-04-30T11:53:30;4.45;;;1.48;;
44137;SDS011;29800;55.942;37.314;2023-04-30T11:55:56;6.38;;;2.55;;
44137;SDS011;29800;55.942;37.314;2023-04-30T11:58:27;2.55;;;1.60;;
44137;SDS011;29800;55.942;37.314;2023-04-30T12:00:58;5.97;;;2.00;;
44137;SDS011;29800;55.942;37.314;2023-04-30T12:03:25;4.10;;;1.70;;
44137;SDS011;29800;55.942;37.314;2023-04-30T12:05:51;3.72;;;2.03;;
44137;SDS011;29800;55.942;37.314;2023-04-30T12:08:18;2.90;;;1.63;;
44137;SDS011;29800;55.942;37.314;2023-04-30T12:10:44;2.85;;;1.38;;
44137;SDS011;29800;55.942;37.314;2023-04-30T12:13:13;3.65;;;1.42;;
44137;SDS011;29800;55.942;37.314;2023-04-30T12:15:55;14.05;;;6.63;;
44137;SDS011;29800;55.942;37.314;2023-04-30T12:18:24;10.88;;;5.65;;
44137;SDS011;29800;55.942;37.314;2023-04-30T12:20:51;10.95;;;5.53;;
44137;SDS011;29800;55.942;37.314;2023-04-30T12:23:18;7.15;;;3.03;;
44137;SDS011;29800;55.942;37.314;2023-04-30T12:25:44;4.88;;;2.25;;
44137;SDS011;29800;55.942;37.314;2023-04-30T12:28:12;8.65;;;3.90;;
44137;SDS011;29800;55.942;37.314;2023-04-30T12:30:38;6.13;;;3.13;;
44137;SDS011;29800;55.942;37.314;2023-04-30T12:33:09;3.83;;;2.20;;
44137;SDS011;29800;55.942;37.314;2023-04-30T12:35:35;7.03;;;2.08;;
44137;SDS011;29800;55.942;37.314;2023-04-30T12:38:02;4.43;;;1.52;;
44137;SDS011;29800;55.942;37.314;2023-04-30T12:40:30;6.72;;;3.60;;
44137;SDS011;29800;55.942;37.314;2023-04-30T12:43:00;4.35;;;2.15;;
44137;SDS011;29800;55.942;37.314;2023-04-30T12:46:05;4.40;;;1.70;;
44137;SDS011;29800;55.942;37.314;2023-04-30T12:48:24;4.63;;;2.00;;
44137;SDS011;29800;55.942;37.314;2023-04-30T12:50:54;6.30;;;2.30;;
44137;SDS011;29800;55.942;37.314;2023-04-30T12:53:26;4.50;;;2.25;;
44137;SDS011;29800;55.942;37.314;2023-04-30T12:56:06;6.35;;;2.38;;
44137;SDS011;29800;55.942;37.314;2023-04-30T12:58:47;7.78;;;2.30;;
44137;SDS011;29800;55.942;37.314;2023-04-30T13:01:16;3.17;;;1.70;;
44137;SDS011;29800;55.942;37.314;2023-04-30T13:03:47;5.65;;;2.05;;
44137;SDS011;29800;55.942;37.314;2023-04-30T13:06:14;3.95;;;1.75;;
44137;SDS011;29800;55.942;37.314;2023-04-30T13:08:40;4.53;;;1.80;;
44137;SDS011;29800;55.942;37.314;2023-04-30T13:11:07;4.63;;;2.08;;
44137;SDS011;29800;55.942;37.314;2023-04-30T13:13:34;5.60;;;1.80;;
44137;SDS011;29800;55.942;37.314;2023-04-30T13:16:00;4.22;;;2.00;;
44137;SDS011;29800;55.942;37.314;2023-04-30T13:18:27;5.55;;;1.98;;
44137;SDS011;29800;55.942;37.314;2023-04-30T13:20:53;3.80;;;1.92;;
44137;SDS011;29800;55.942;37.314;2023-04-30T13:23:20;4.35;;;2.20;;
44137;SDS011;29800;55.942;37.314;2023-04-30T13:25:46;4.60;;;1.80;;
44137;SDS011;29800;55.942;37.314;2023-04-30T13:28:12;3.38;;;1.80;;
44137;SDS011;29800;55.942;37.314;2023-04-30T13:30:39;3.58;;;2.00;;
44137;SDS011;29800;55.942;37.314;2023-04-30T13:33:06;3.72;;;1.88;;
44137;SDS011;29800;55.942;37.314;2023-04-30T13:35:32;7.28;;;2.10;;
44137;SDS011;29800;55.942;37.314;2023-04-30T13:37:58;4.88;;;2.22;;
44137;SDS011;29800;55.942;37.314;2023-04-30T13:40:25;4.80;;;2.55;;
44137;SDS011;29800;55.942;37.314;2023-04-30T13:42:52;6.10;;;3.20;;
44137;SDS011;29800;55.942;37.314;2023-04-30T13:45:18;5.03;;;1.88;;
44137;SDS011;29800;55.942;37.314;2023-04-30T13:47:45;5.55;;;2.30;;
44137;SDS011;29800;55.942;37.314;2023-04-30T13:50:11;5.20;;;2.75;;
44137;SDS011;29800;55.942;37.314;2023-04-30T13:52:38;4.57;;;2.67;;
44137;SDS011;29800;55.942;37.314;2023-04-30T13:55:05;8.18;;;2.80;;
44137;SDS011;29800;55.942;37.314;2023-04-30T13:57:32;6.13;;;2.95;;
44137;SDS011;29800;55.942;37.314;2023-04-30T13:59:58;5.78;;;3.10;;
44137;SDS011;29800;55.942;37.314;2023-04-30T14:02:25;5.00;;;2.60;;
44137;SDS011;29800;55.942;37.314;2023-04-30T14:04:54;6.82;;;4.00;;
44137;SDS011;29800;55.942;37.314;2023-04-30T14:07:22;5.78;;;2.50;;
44137;SDS011;29800;55.942;37.314;2023-04-30T14:09:49;4.18;;;2.10;;
44137;SDS011;29800;55.942;37.314;2023-04-30T14:12:15;4.82;;;2.40;;
44137;SDS011;29800;55.942;37.314;2023-04-30T14:14:41;6.80;;;2.28;;
44137;SDS011;29800;55.942;37.314;2023-04-30T14:17:08;5.07;;;2.33;;
44137;SDS011;29800;55.942;37.314;2023-04-30T14:19:35;5.10;;;2.50;;
44137;SDS011;29800;55.942;37.314;2023-04-30T14:22:01;3.55;;;2.35;;
44137;SDS011;29800;55.942;37.314;2023-04-30T14:24:27;6.82;;;2.42;;
44137;SDS011;29800;55.942;37.314;2023-04-30T14:26:53;4.05;;;2.10;;
44137;SDS011;29800;55.942;37.314;2023-04-30T14:29:20;4.15;;;2.13;;
44137;SDS011;29800;55.942;37.314;2023-04-30T14:31:47;4.60;;;2.05;;
44137;SDS011;29800;55.942;37.314;2023-04-30T14:34:13;6.15;;;2.60;;
44137;SDS011;29800;55.942;37.314;2023-04-30T14:36:39;7.07;;;2.70;;
44137;SDS011;29800;55.942;37.314;2023-04-30T14:39:06;5.85;;;2.20;;
44137;SDS011;29800;55.942;37.314;2023-04-30T14:41:36;6.20;;;2.58;;
44137;SDS011;29800;55.942;37.314;2023-04-30T14:44:02;5.68;;;2.38;;
44137;SDS011;29800;55.942;37.314;2023-04-30T14:46:29;5.55;;;2.30;;
44137;SDS011;29800;55.942;37.314;2023-04-30T14:48:56;4.40;;;2.55;;
44137;SDS011;29800;55.942;37.314;2023-04-30T14:51:22;4.97;;;2.78;;
44137;SDS011;29800;55.942;37.314;2023-04-30T14:53:48;5.63;;;2.60;;
44137;SDS011;29800;55.942;37.314;2023-04-30T14:56:15;4.40;;;2.35;;
44137;SDS011;29800;55.942;37.314;2023-04-30T14:58:41;7.72;;;3.05;;
44137;SDS011;29800;55.942;37.314;2023-04-30T15:01:08;5.53;;;2.45;;
44137;SDS011;29800;55.942;37.314;2023-04-30T15:03:35;5.50;;;2.95;;
44137;SDS011;29800;55.942;37.314;2023-04-30T15:06:01;11.27;;;2.88;;
44137;SDS011;29800;55.942;37.314;2023-04-30T15:08:28;4.57;;;2.30;;
44137;SDS011;29800;55.942;37.314;2023-04-30T15:10:54;6.35;;;2.60;;
44137;SDS011;29800;55.942;37.314;2023-04-30T15:13:21;5.03;;;2.55;;
44137;SDS011;29800;55.942;37.314;2023-04-30T15:15:47;5.22;;;2.72;;
44137;SDS011;29800;55.942;37.314;2023-04-30T15:18:14;4.95;;;2.72;;
44137;SDS011;29800;55.942;37.314;2023-04-30T15:20:41;6.88;;;2.90;;